メインページ
METAR-TAF:

METAR-TAF

空港 :

ダカール, セネガル

レオポール・セダール・サンゴール国際空港

緯度: 14-44N, 経度: 017-30W, 海抜: 27m

現時点の気象観測

当レポートは40分前の10:00(UTC)に作成
北東の風 12kt
気温 28°C
湿度 51%
気圧 1013 hPa
視程10km以上
1,500メートル以下は雲なし、積乱雲なし

METAR: GOOY 191000Z 04012KT CAVOK 28/17 Q1013 NOSIG

時間: 10:40 (10:40 UTC)

予報

当レポートは5時間10分前の05:30(UTC)に作成
予報は19日の 06時(UTC)から 20日の 12時(UTC)まで有効
北/北東の風 9kt
視程10km以上
1,500メートル以下は雲なし、積乱雲なし

TAF: GOOY 190530Z 1906/2012 03009KT CAVOK

4,000以上の空港の気象観測と天気予報(METAR報とTAF報)

利用可能な観測所は地図上に黄色い丸と赤い丸で示す。

丸の上にカーソルを重ねると観測所名を参照できる。

次にクリックすると気象観測と天気予報を参照できる。

マップの切り替え:黒色「×」印の緑ボタンをクリックして拡大、「-」印の緑ボタンをクリックして縮小、緑色の三角印をクリックして隣りの地図に切り替え


METAR-TAF: